Whetstone, United Kingdom
Current Conditions -  °F | °C
As of 12:50 AM on Wednesday 26 Nov 2014 (Local Time) from EGWU Reporting Station
Broken Clouds Broken Clouds  
Wind Chill: 44°   Ceiling: 900
Heat Index: 46°   Visibility: 5mi
Dew Point: 45°   Wind: 5mph
Humidity: 93%   Direction: 50°NE
Pressure: 29.94"   Gusts: NA
Location:  51.63°N, 0.16°W
Report Text: EGWU 260050Z AUTO 05004KT 8000 // BKN009/// 08/07 Q1014
Loading
Personal Weather Stations






























Interactive Weather Map New forecast layout! Learn more

10-Day Weather Forecast

Advertisements
Track Severe Weather on mobile